• Join FlightAware (Why Join?)
  • Login
  • US Flag 
09:20AM EDT


 

Airport Tracker/Info


-or-


 

Live Flight TrackerFlight Track Log ✈ PDT4226 ✈ 27-Jan-2014 ✈ KBGM - KPHL

Flight Track Log - Related Links

Times and Time Zones

All times are in EST time to prevent confusion due to time zone crossing. See the PDT4226 flight status page for this flight to view local times or setup timezone preferences in your user account.

Time Position Orientation Groundspeed Altitude Reporting Facility
EST Latitude Longitude Course Direction KTS MPH feet Rate Location/Type
02:09PM 40.5580 -75.4835 189° South  Level FlightAware Approximate
02:10PM 40.4592 -75.5042 189° South  Level FlightAware Approximate
02:11PM 40.3605 -75.5255 190° South  Level FlightAware Approximate
02:12PM 40.2618 -75.5474 190° South  Level FlightAware Approximate
02:13PM 40.1698 -75.5198 143° Southeast  Level FlightAware Approximate
02:14PM 40.0903 -75.4403 143° Southeast  Level FlightAware Approximate
02:15PM 40.0109 -75.3608 143° Southeast  Level FlightAware Approximate
02:16PM 39.9333 -75.2954 90° East  Level FlightAware Approximate
02:17PM 39.8722 -75.2409 150° Southeast  Level Estimated
02:18PM 39.8722 -75.2409 150° Southeast  Level Estimated
02:19PM 39.8722 -75.2409 150° Southeast  Level Estimated
02:20PM 39.8722 -75.2409 150° Southeast  Level Estimated
02:21PM 39.8722 -75.2409 150° Southeast  Level Estimated
02:22PM 39.8722 -75.2409 150° Southeast  Level Estimated
02:23PM 39.8722 -75.2409 150° Southeast  Level Estimated
02:24PM 39.8722 -75.2409 150° Southeast  Level Estimated
02:25PM 39.8722 -75.2409 150° Southeast  Level Estimated
02:26PM 39.8722 -75.2409 150° Southeast  Level Estimated
02:27PM 39.8722 -75.2409 150° Southeast  Level Estimated
02:28PM 39.8722 -75.2409 150° Southeast  Level Estimated
02:29PM 39.8722 -75.2409 150° Southeast  Level Estimated
02:30PM 39.8722 -75.2409 150° Southeast  Level Estimated
02:31PM 39.8722 -75.2409 150° Southeast  Level Estimated
02:31PM 40.6167 -75.5833 150° Southeast 210 242 7,200  Level Philadelphia TRACON
02:32PM 39.8722 -75.2409 150° Southeast  Level Estimated
02:32PM 40.5500 -75.5833 180° South 213 245 6,100  Level Philadelphia TRACON
02:33PM 39.8722 -75.2409 150° Southeast  Level Estimated
02:33PM 40.4833 -75.5333 150° Southeast 279 321 5,200  Level Philadelphia TRACON
02:34PM 39.8722 -75.2409 150° Southeast  Level Estimated
02:34PM 40.4333 -75.4833 143° Southeast 261 300 5,000  Level Philadelphia TRACON
02:35PM 39.8722 -75.2409 150° Southeast  Level Estimated
02:35PM 40.3833 -75.4167 135° Southeast 260 299 5,000  Level Philadelphia TRACON
02:36PM 39.8722 -75.2409 150° Southeast  Level Estimated
02:36PM 40.3167 -75.3500 143° Southeast 259 298 5,000  Level Philadelphia TRACON
02:37PM 39.8722 -75.2409 150° Southeast  Level Estimated
02:37PM 40.2667 -75.2833 134° Southeast 259 298 5,000  Level Philadelphia TRACON
02:38PM 40.2000 -75.2333 150° Southeast 249 287 5,000 -300 Level Philadelphia TRACON
02:39PM 40.1500 -75.2000 153° Southeast 244 281 4,400 -540 Descending Philadelphia TRACON
02:40PM 40.0833 -75.1833 169° South 251 289 4,000 -240 Descending Philadelphia TRACON
02:41PM 40.0167 -75.1667 169° South 237 273 4,000  Level Philadelphia TRACON
02:42PM 39.9667 -75.1500 166° South 206 237 4,000  Level Philadelphia TRACON
02:44PM 39.8833 -75.1167 163° South 199 229 4,000  Level Philadelphia TRACON
02:45PM 39.8500 -75.1000 159° South 191 220 4,000 -540 Level Philadelphia TRACON
02:45PM 39.8000 -75.0833 166° South 202 232 3,100 -1,260 Descending Philadelphia TRACON
02:46PM 39.7667 -75.1333 229° Southwest 166 191 1,800 -720 Descending Philadelphia TRACON
02:48PM 39.8000 -75.1833 311° West 143 165 1,600 -360 Descending Philadelphia TRACON
02:49PM 39.8167 -75.2000 322° Northwest 123 142 1,100 -660 Descending Philadelphia TRACON
02:49PM 39.8500 -75.2167 339° North 123 142 400 -780 Descending Philadelphia TRACON